TAM3276 SBGR-SBCH
Flight info
| Callsign | TAM3276 |
|---|---|
| Flight time | 1h 28m |
| Altitude | 34000 |
| Route | DCT SOVSI UZ85 RAXIT DCT UMDOR DCT |
| Aircraft | A320/M-SDE3FGHIRWY/LB1 |
Departure
| Time | 2026-04-22 17:57 |
|---|---|
| Airport | São Paulo/Guarulhos–Governor André Franco Montoro International Airport (SBGR) |
Arrival
| Time | 2026-04-22 19:25 |
|---|---|
| Airport | Serafin Enoss Bertaso Airport (SBCH) |
| Time | Latitude | Longitude | Altitude | Speed | Heading |
|---|---|---|---|---|---|
| 2026-04-22 17:25 | -23.42809 | -46.48246 | 2471 ft | 0 kts | 264° |
| 2026-04-22 17:48 | -23.42808 | -46.48232 | 2471 ft | 4 kts | 263° |
| 2026-04-22 17:48 | -23.42803 | -46.48204 | 2468 ft | 4 kts | 255° |
| 2026-04-22 17:49 | -23.42794 | -46.48176 | 2468 ft | 4 kts | 238° |
| 2026-04-22 17:49 | -23.42778 | -46.48158 | 2471 ft | 4 kts | 186° |
| 2026-04-22 17:49 | -23.42768 | -46.48158 | 2469 ft | 1 kts | 174° |
| 2026-04-22 17:54 | -23.42773 | -46.48157 | 2468 ft | 2 kts | 175° |
| 2026-04-22 17:54 | -23.42804 | -46.48154 | 2473 ft | 7 kts | 174° |
| 2026-04-22 17:54 | -23.42863 | -46.48148 | 2472 ft | 11 kts | 173° |
| 2026-04-22 17:54 | -23.42950 | -46.48139 | 2469 ft | 14 kts | 174° |
| 2026-04-22 17:55 | -23.43051 | -46.48128 | 2469 ft | 15 kts | 174° |
| 2026-04-22 17:55 | -23.43132 | -46.48181 | 2472 ft | 16 kts | 252° |
| 2026-04-22 17:55 | -23.43165 | -46.48312 | 2470 ft | 17 kts | 250° |
| 2026-04-22 17:55 | -23.43237 | -46.48384 | 2473 ft | 15 kts | 169° |
| 2026-04-22 17:56 | -23.43348 | -46.48350 | 2470 ft | 17 kts | 160° |
| 2026-04-22 17:56 | -23.43405 | -46.48254 | 2471 ft | 13 kts | 90° |
| 2026-04-22 17:56 | -23.43400 | -46.48228 | 2469 ft | 2 kts | 72° |
| 2026-04-22 17:56 | -23.43389 | -46.48190 | 2473 ft | 14 kts | 73° |
| 2026-04-22 17:57 | -23.43294 | -46.47833 | 2471 ft | 85 kts | 72° |
| 2026-04-22 17:57 | -23.43067 | -46.47002 | 2471 ft | 141 kts | 73° |
| 2026-04-22 17:57 | -23.42761 | -46.45815 | 2587 ft | 176 kts | 77° |
| 2026-04-22 17:57 | -23.42410 | -46.44528 | 3250 ft | 180 kts | 73° |
| 2026-04-22 17:58 | -23.42019 | -46.43215 | 3854 ft | 184 kts | 72° |
| 2026-04-22 17:58 | -23.41617 | -46.41879 | 4391 ft | 186 kts | 73° |
| 2026-04-22 17:58 | -23.41211 | -46.40545 | 4977 ft | 185 kts | 72° |
| 2026-04-22 17:58 | -23.40810 | -46.39212 | 5542 ft | 185 kts | 72° |
| 2026-04-22 17:59 | -23.40427 | -46.37876 | 6126 ft | 183 kts | 73° |
| 2026-04-22 17:59 | -23.40192 | -46.36534 | 6723 ft | 180 kts | 91° |
| 2026-04-22 17:59 | -23.40332 | -46.35198 | 7252 ft | 177 kts | 105° |
| 2026-04-22 17:59 | -23.40737 | -46.33960 | 7803 ft | 172 kts | 112° |
| 2026-04-22 18:00 | -23.41022 | -46.33146 | 8173 ft | 168 kts | 111° |
| 2026-04-22 18:00 | -23.41515 | -46.31616 | 8901 ft | 160 kts | 111° |
| 2026-04-22 18:00 | -23.41901 | -46.30411 | 9101 ft | 178 kts | 111° |
| 2026-04-22 18:00 | -23.42346 | -46.29033 | 9120 ft | 209 kts | 111° |
| 2026-04-22 18:01 | -23.42917 | -46.27446 | 9129 ft | 241 kts | 121° |
| 2026-04-22 18:01 | -23.44077 | -46.25982 | 9127 ft | 272 kts | 145° |
| 2026-04-22 18:01 | -23.45854 | -46.25166 | 9316 ft | 286 kts | 173° |
| 2026-04-22 18:01 | -23.47836 | -46.25265 | 10063 ft | 288 kts | 189° |
| 2026-04-22 18:02 | -23.49852 | -46.25646 | 10511 ft | 304 kts | 190° |
| 2026-04-22 18:02 | -23.51978 | -46.26177 | 10785 ft | 322 kts | 200° |
| 2026-04-22 18:02 | -23.53971 | -46.27357 | 11319 ft | 331 kts | 217° |
| 2026-04-22 18:02 | -23.55589 | -46.29166 | 11955 ft | 337 kts | 234° |
| 2026-04-22 18:03 | -23.56658 | -46.31454 | 12597 ft | 343 kts | 251° |
| 2026-04-22 18:03 | -23.57211 | -46.33997 | 13294 ft | 346 kts | 257° |
| 2026-04-22 18:03 | -23.57720 | -46.36575 | 13965 ft | 349 kts | 256° |
| 2026-04-22 18:03 | -23.58229 | -46.39163 | 14585 ft | 351 kts | 257° |
| 2026-04-22 18:04 | -23.58743 | -46.41775 | 15157 ft | 353 kts | 257° |
| 2026-04-22 18:04 | -23.59262 | -46.44399 | 15732 ft | 356 kts | 257° |
| 2026-04-22 18:04 | -23.59786 | -46.47050 | 16046 ft | 358 kts | 256° |
| 2026-04-22 18:04 | -23.60311 | -46.49696 | 16145 ft | 357 kts | 256° |
| 2026-04-22 18:05 | -23.60833 | -46.52342 | 16180 ft | 358 kts | 257° |
| 2026-04-22 18:05 | -23.61294 | -46.55026 | 16727 ft | 361 kts | 259° |
| 2026-04-22 18:05 | -23.61699 | -46.57733 | 17342 ft | 363 kts | 260° |
| 2026-04-22 18:05 | -23.62077 | -46.60456 | 17955 ft | 364 kts | 260° |
| 2026-04-22 18:06 | -23.62457 | -46.63190 | 18533 ft | 366 kts | 258° |
| 2026-04-22 18:06 | -23.63170 | -46.65849 | 18993 ft | 366 kts | 246° |
| 2026-04-22 18:06 | -23.64370 | -46.68294 | 19478 ft | 367 kts | 237° |
| 2026-04-22 18:06 | -23.65750 | -46.70650 | 19975 ft | 369 kts | 237° |
| 2026-04-22 18:07 | -23.67131 | -46.73010 | 20461 ft | 370 kts | 237° |
| 2026-04-22 18:07 | -23.68518 | -46.75385 | 20938 ft | 372 kts | 237° |
| 2026-04-22 18:07 | -23.69909 | -46.77778 | 21394 ft | 374 kts | 237° |
| 2026-04-22 18:07 | -23.71303 | -46.80184 | 21830 ft | 376 kts | 237° |
| 2026-04-22 18:08 | -23.72710 | -46.82596 | 22288 ft | 378 kts | 237° |
| 2026-04-22 18:08 | -23.74136 | -46.85018 | 22737 ft | 380 kts | 237° |
| 2026-04-22 18:08 | -23.75570 | -46.87443 | 23170 ft | 382 kts | 237° |
| 2026-04-22 18:08 | -23.77013 | -46.89884 | 23567 ft | 384 kts | 237° |
| 2026-04-22 18:09 | -23.78461 | -46.92337 | 23931 ft | 385 kts | 237° |
| 2026-04-22 18:09 | -23.79913 | -46.94804 | 24279 ft | 387 kts | 237° |
| 2026-04-22 18:09 | -23.81370 | -46.97282 | 24631 ft | 389 kts | 237° |
| 2026-04-22 18:09 | -23.82833 | -46.99773 | 24981 ft | 390 kts | 237° |
| 2026-04-22 18:10 | -23.84299 | -47.02274 | 25315 ft | 392 kts | 237° |
| 2026-04-22 18:10 | -23.85771 | -47.04787 | 25650 ft | 394 kts | 237° |
| 2026-04-22 18:10 | -23.87251 | -47.07313 | 26004 ft | 395 kts | 237° |
| 2026-04-22 18:10 | -23.88730 | -47.09843 | 26336 ft | 397 kts | 237° |
| 2026-04-22 18:11 | -23.90221 | -47.12390 | 26662 ft | 399 kts | 237° |
| 2026-04-22 18:11 | -23.91721 | -47.14948 | 26988 ft | 400 kts | 237° |
| 2026-04-22 18:11 | -23.93224 | -47.17514 | 27301 ft | 402 kts | 237° |
| 2026-04-22 18:11 | -23.94733 | -47.20093 | 27613 ft | 404 kts | 237° |
| 2026-04-22 18:12 | -23.96252 | -47.22686 | 27916 ft | 406 kts | 237° |
| 2026-04-22 18:12 | -23.97777 | -47.25287 | 28224 ft | 408 kts | 237° |
| 2026-04-22 18:12 | -23.98791 | -47.27020 | 28423 ft | 409 kts | 237° |
| 2026-04-22 18:12 | -24.00842 | -47.30534 | 28838 ft | 411 kts | 237° |
| 2026-04-22 18:13 | -24.02382 | -47.33176 | 29138 ft | 413 kts | 237° |
| 2026-04-22 18:13 | -24.03929 | -47.35829 | 29450 ft | 414 kts | 237° |
| 2026-04-22 18:13 | -24.05481 | -47.38496 | 29750 ft | 416 kts | 238° |
| 2026-04-22 18:13 | -24.07037 | -47.41171 | 30041 ft | 418 kts | 238° |
| 2026-04-22 18:14 | -24.08603 | -47.43859 | 30293 ft | 419 kts | 237° |
| 2026-04-22 18:14 | -24.10388 | -47.46385 | 30521 ft | 422 kts | 228° |
| 2026-04-22 18:14 | -24.12569 | -47.48550 | 30743 ft | 425 kts | 218° |
| 2026-04-22 18:14 | -24.15045 | -47.50341 | 30979 ft | 428 kts | 214° |
| 2026-04-22 18:15 | -24.17564 | -47.52083 | 31216 ft | 429 kts | 214° |
| 2026-04-22 18:15 | -24.20094 | -47.53836 | 31480 ft | 430 kts | 214° |
| 2026-04-22 18:15 | -24.22611 | -47.55584 | 31825 ft | 428 kts | 214° |
| 2026-04-22 18:15 | -24.25121 | -47.57332 | 32167 ft | 427 kts | 214° |
| 2026-04-22 18:16 | -24.27621 | -47.59075 | 32498 ft | 426 kts | 215° |
| 2026-04-22 18:16 | -24.30118 | -47.60817 | 32844 ft | 424 kts | 215° |
| 2026-04-22 18:16 | -24.32607 | -47.62552 | 33039 ft | 424 kts | 215° |
| 2026-04-22 18:17 | -24.37579 | -47.66014 | 33070 ft | 423 kts | 215° |
| 2026-04-22 18:17 | -24.42445 | -47.69604 | 33069 ft | 419 kts | 223° |
| 2026-04-22 18:18 | -24.46660 | -47.74007 | 33070 ft | 418 kts | 226° |
| 2026-04-22 18:18 | -24.50842 | -47.78436 | 33071 ft | 418 kts | 225° |
| 2026-04-22 18:19 | -24.55029 | -47.82868 | 33070 ft | 418 kts | 226° |
| 2026-04-22 18:19 | -24.59214 | -47.87303 | 33071 ft | 418 kts | 226° |
| 2026-04-22 18:20 | -24.63397 | -47.91736 | 33078 ft | 418 kts | 226° |
| 2026-04-22 18:20 | -24.67578 | -47.96183 | 33076 ft | 418 kts | 226° |
| 2026-04-22 18:21 | -24.71761 | -48.00620 | 33080 ft | 418 kts | 226° |
| 2026-04-22 18:21 | -24.75943 | -48.05072 | 33092 ft | 418 kts | 226° |
| 2026-04-22 18:22 | -24.80107 | -48.09512 | 33076 ft | 416 kts | 226° |
| 2026-04-22 18:22 | -24.84268 | -48.13941 | 33085 ft | 416 kts | 226° |
| 2026-04-22 18:23 | -24.88426 | -48.18377 | 33091 ft | 416 kts | 226° |
| 2026-04-22 18:23 | -24.92580 | -48.22820 | 33089 ft | 416 kts | 226° |
| 2026-04-22 18:24 | -24.98810 | -48.29483 | 33093 ft | 416 kts | 226° |
| 2026-04-22 18:25 | -25.05014 | -48.36128 | 33092 ft | 416 kts | 226° |
| 2026-04-22 18:25 | -25.09157 | -48.40583 | 33091 ft | 416 kts | 226° |
| 2026-04-22 18:26 | -25.12966 | -48.45346 | 33096 ft | 413 kts | 239° |
| 2026-04-22 18:26 | -25.14419 | -48.48068 | 33089 ft | 411 kts | 241° |
| 2026-04-22 18:26 | -25.17291 | -48.53524 | 33088 ft | 411 kts | 240° |
| 2026-04-22 18:27 | -25.20181 | -48.58975 | 33096 ft | 411 kts | 240° |
| 2026-04-22 18:27 | -25.23065 | -48.64434 | 33096 ft | 411 kts | 240° |
| 2026-04-22 18:28 | -25.25943 | -48.69894 | 33098 ft | 411 kts | 241° |
| 2026-04-22 18:28 | -25.28816 | -48.75361 | 33094 ft | 411 kts | 241° |
| 2026-04-22 18:29 | -25.31684 | -48.80832 | 33100 ft | 412 kts | 241° |
| 2026-04-22 18:29 | -25.34556 | -48.86303 | 33106 ft | 412 kts | 241° |
| 2026-04-22 18:30 | -25.38867 | -48.94510 | 33128 ft | 411 kts | 241° |
| 2026-04-22 18:31 | -25.41733 | -48.99983 | 33143 ft | 411 kts | 241° |
| 2026-04-22 18:31 | -25.44600 | -49.05462 | 33156 ft | 411 kts | 241° |
| 2026-04-22 18:32 | -25.46982 | -49.10017 | 33164 ft | 411 kts | 241° |
| 2026-04-22 18:32 | -25.50320 | -49.16429 | 33166 ft | 411 kts | 241° |
| 2026-04-22 18:33 | -25.52688 | -49.20991 | 33167 ft | 411 kts | 241° |
| 2026-04-22 18:33 | -25.55545 | -49.26480 | 33165 ft | 411 kts | 241° |
| 2026-04-22 18:34 | -25.58400 | -49.31969 | 33155 ft | 411 kts | 241° |
| 2026-04-22 18:34 | -25.61250 | -49.37456 | 33138 ft | 411 kts | 241° |
| 2026-04-22 18:35 | -25.64099 | -49.42948 | 33125 ft | 411 kts | 241° |
| 2026-04-22 18:35 | -25.66947 | -49.48446 | 33109 ft | 411 kts | 241° |
| 2026-04-22 18:36 | -25.69789 | -49.53944 | 33099 ft | 411 kts | 242° |
| 2026-04-22 18:36 | -25.72632 | -49.59448 | 33099 ft | 411 kts | 242° |
| 2026-04-22 18:37 | -25.75477 | -49.64954 | 33097 ft | 411 kts | 242° |
| 2026-04-22 18:37 | -25.78314 | -49.70463 | 33104 ft | 411 kts | 242° |
| 2026-04-22 18:38 | -25.81140 | -49.75954 | 33108 ft | 409 kts | 242° |
| 2026-04-22 18:38 | -25.83957 | -49.81436 | 33095 ft | 409 kts | 242° |
| 2026-04-22 18:39 | -25.88182 | -49.89664 | 33097 ft | 409 kts | 242° |
| 2026-04-22 18:39 | -25.90999 | -49.95148 | 33096 ft | 409 kts | 242° |
| 2026-04-22 18:40 | -25.93809 | -50.00635 | 33099 ft | 409 kts | 242° |
| 2026-04-22 18:40 | -25.96616 | -50.06131 | 33096 ft | 409 kts | 242° |
| 2026-04-22 18:41 | -25.99420 | -50.11629 | 33096 ft | 409 kts | 242° |
| 2026-04-22 18:41 | -26.02226 | -50.17126 | 33099 ft | 409 kts | 242° |
| 2026-04-22 18:42 | -26.05013 | -50.22591 | 33098 ft | 409 kts | 242° |
| 2026-04-22 18:42 | -26.07816 | -50.28092 | 33100 ft | 409 kts | 242° |
| 2026-04-22 18:43 | -26.10613 | -50.33602 | 33098 ft | 409 kts | 242° |
| 2026-04-22 18:43 | -26.13406 | -50.39112 | 33101 ft | 409 kts | 242° |
| 2026-04-22 18:44 | -26.16204 | -50.44626 | 33092 ft | 409 kts | 243° |
| 2026-04-22 18:44 | -26.19002 | -50.50148 | 33093 ft | 410 kts | 243° |
| 2026-04-22 18:45 | -26.21796 | -50.55681 | 33093 ft | 410 kts | 243° |
| 2026-04-22 18:45 | -26.24588 | -50.61214 | 33092 ft | 410 kts | 243° |
| 2026-04-22 18:46 | -26.27384 | -50.66748 | 33098 ft | 410 kts | 243° |
| 2026-04-22 18:46 | -26.30168 | -50.72285 | 33094 ft | 410 kts | 243° |
| 2026-04-22 18:47 | -26.32955 | -50.77823 | 33093 ft | 410 kts | 243° |
| 2026-04-22 18:47 | -26.35725 | -50.83332 | 32856 ft | 400 kts | 243° |
| 2026-04-22 18:48 | -26.37068 | -50.86001 | 32611 ft | 390 kts | 243° |
| 2026-04-22 18:48 | -26.38376 | -50.88605 | 32365 ft | 380 kts | 243° |
| 2026-04-22 18:48 | -26.39655 | -50.91156 | 32118 ft | 376 kts | 243° |
| 2026-04-22 18:48 | -26.40923 | -50.93690 | 31878 ft | 373 kts | 243° |
| 2026-04-22 18:49 | -26.42182 | -50.96212 | 31643 ft | 371 kts | 243° |
| 2026-04-22 18:49 | -26.43430 | -50.98702 | 31315 ft | 365 kts | 243° |
| 2026-04-22 18:49 | -26.44663 | -51.01161 | 30887 ft | 361 kts | 243° |
| 2026-04-22 18:49 | -26.45885 | -51.03602 | 30486 ft | 358 kts | 243° |
| 2026-04-22 18:50 | -26.47095 | -51.06015 | 30050 ft | 355 kts | 244° |
| 2026-04-22 18:50 | -26.48292 | -51.08407 | 29603 ft | 350 kts | 244° |
| 2026-04-22 18:50 | -26.49453 | -51.10730 | 29231 ft | 345 kts | 243° |
| 2026-04-22 18:50 | -26.50615 | -51.13056 | 28849 ft | 340 kts | 243° |
| 2026-04-22 18:51 | -26.51757 | -51.15348 | 28484 ft | 335 kts | 244° |
| 2026-04-22 18:51 | -26.52874 | -51.17610 | 28115 ft | 331 kts | 243° |
| 2026-04-22 18:51 | -26.53983 | -51.19841 | 27743 ft | 326 kts | 243° |
| 2026-04-22 18:51 | -26.55082 | -51.22043 | 27382 ft | 323 kts | 243° |
| 2026-04-22 18:52 | -26.56170 | -51.24225 | 27018 ft | 321 kts | 243° |
| 2026-04-22 18:52 | -26.57254 | -51.26396 | 26656 ft | 319 kts | 243° |
| 2026-04-22 18:52 | -26.58333 | -51.28560 | 26282 ft | 318 kts | 243° |
| 2026-04-22 18:52 | -26.59405 | -51.30716 | 25922 ft | 317 kts | 242° |
| 2026-04-22 18:53 | -26.60473 | -51.32869 | 25530 ft | 316 kts | 242° |
| 2026-04-22 18:53 | -26.61537 | -51.35015 | 25146 ft | 315 kts | 243° |
| 2026-04-22 18:53 | -26.62597 | -51.37155 | 24764 ft | 314 kts | 242° |
| 2026-04-22 18:53 | -26.63652 | -51.39282 | 24370 ft | 313 kts | 242° |
| 2026-04-22 18:54 | -26.64704 | -51.41409 | 23973 ft | 313 kts | 242° |
| 2026-04-22 18:54 | -26.65759 | -51.43534 | 23561 ft | 313 kts | 242° |
| 2026-04-22 18:54 | -26.66812 | -51.45656 | 23124 ft | 311 kts | 242° |
| 2026-04-22 18:54 | -26.67860 | -51.47770 | 22730 ft | 310 kts | 241° |
| 2026-04-22 18:55 | -26.68903 | -51.49872 | 22345 ft | 309 kts | 241° |
| 2026-04-22 18:55 | -26.69942 | -51.51970 | 21956 ft | 308 kts | 241° |
| 2026-04-22 18:55 | -26.70979 | -51.54062 | 21578 ft | 307 kts | 241° |
| 2026-04-22 18:55 | -26.72013 | -51.56148 | 21196 ft | 306 kts | 241° |
| 2026-04-22 18:56 | -26.73044 | -51.58231 | 20817 ft | 306 kts | 241° |
| 2026-04-22 18:56 | -26.74071 | -51.60312 | 20438 ft | 306 kts | 241° |
| 2026-04-22 18:56 | -26.75095 | -51.62393 | 20072 ft | 306 kts | 241° |
| 2026-04-22 18:56 | -26.76121 | -51.64478 | 19697 ft | 306 kts | 241° |
| 2026-04-22 18:57 | -26.77148 | -51.66567 | 19321 ft | 307 kts | 241° |
| 2026-04-22 18:57 | -26.78178 | -51.68659 | 18945 ft | 308 kts | 241° |
| 2026-04-22 18:57 | -26.79216 | -51.70762 | 18560 ft | 309 kts | 241° |
| 2026-04-22 18:57 | -26.80256 | -51.72870 | 18158 ft | 310 kts | 241° |
| 2026-04-22 18:58 | -26.81296 | -51.74985 | 17762 ft | 310 kts | 241° |
| 2026-04-22 18:58 | -26.82333 | -51.77099 | 17393 ft | 309 kts | 241° |
| 2026-04-22 18:58 | -26.83370 | -51.79207 | 17024 ft | 309 kts | 241° |
| 2026-04-22 18:58 | -26.84405 | -51.81312 | 16659 ft | 309 kts | 241° |
| 2026-04-22 18:59 | -26.85441 | -51.83419 | 16288 ft | 309 kts | 242° |
| 2026-04-22 18:59 | -26.86472 | -51.85523 | 15923 ft | 308 kts | 242° |
| 2026-04-22 18:59 | -26.87504 | -51.87629 | 15565 ft | 308 kts | 242° |
| 2026-04-22 18:59 | -26.88537 | -51.89736 | 15196 ft | 309 kts | 242° |
| 2026-04-22 19:00 | -26.89559 | -51.91848 | 14829 ft | 309 kts | 242° |
| 2026-04-22 19:00 | -26.90591 | -51.93958 | 14460 ft | 309 kts | 242° |
| 2026-04-22 19:00 | -26.91627 | -51.96069 | 14103 ft | 309 kts | 242° |
| 2026-04-22 19:00 | -26.92667 | -51.98186 | 13700 ft | 310 kts | 242° |
| 2026-04-22 19:01 | -26.93672 | -52.00280 | 13328 ft | 309 kts | 243° |
| 2026-04-22 19:01 | -26.94699 | -52.02393 | 12952 ft | 308 kts | 242° |
| 2026-04-22 19:01 | -26.95734 | -52.04493 | 12582 ft | 308 kts | 242° |
| 2026-04-22 19:01 | -26.96770 | -52.06592 | 12202 ft | 308 kts | 242° |
| 2026-04-22 19:02 | -26.97804 | -52.08690 | 11820 ft | 307 kts | 243° |
| 2026-04-22 19:02 | -26.98831 | -52.10781 | 11433 ft | 306 kts | 242° |
| 2026-04-22 19:02 | -26.99857 | -52.12874 | 11039 ft | 306 kts | 243° |
| 2026-04-22 19:02 | -27.00878 | -52.14968 | 10652 ft | 305 kts | 243° |
| 2026-04-22 19:03 | -27.01894 | -52.17046 | 10375 ft | 300 kts | 243° |
| 2026-04-22 19:03 | -27.02881 | -52.19075 | 10174 ft | 294 kts | 243° |
| 2026-04-22 19:03 | -27.03849 | -52.21067 | 10072 ft | 289 kts | 243° |
| 2026-04-22 19:03 | -27.04811 | -52.23043 | 10082 ft | 289 kts | 243° |
| 2026-04-22 19:04 | -27.05774 | -52.25025 | 10084 ft | 289 kts | 243° |
| 2026-04-22 19:04 | -27.06734 | -52.26999 | 10082 ft | 288 kts | 243° |
| 2026-04-22 19:04 | -27.07696 | -52.28976 | 10087 ft | 289 kts | 243° |
| 2026-04-22 19:04 | -27.08656 | -52.30948 | 10083 ft | 288 kts | 243° |
| 2026-04-22 19:05 | -27.09617 | -52.32931 | 10086 ft | 289 kts | 243° |
| 2026-04-22 19:05 | -27.10574 | -52.34909 | 10085 ft | 288 kts | 243° |
| 2026-04-22 19:05 | -27.11529 | -52.36884 | 10085 ft | 288 kts | 243° |
| 2026-04-22 19:05 | -27.12484 | -52.38857 | 10087 ft | 288 kts | 243° |
| 2026-04-22 19:06 | -27.13437 | -52.40829 | 9993 ft | 288 kts | 243° |
| 2026-04-22 19:06 | -27.14395 | -52.42810 | 9580 ft | 288 kts | 243° |
| 2026-04-22 19:06 | -27.15356 | -52.44814 | 8871 ft | 296 kts | 246° |
| 2026-04-22 19:07 | -27.15738 | -52.49350 | 7304 ft | 296 kts | 279° |
| 2026-04-22 19:07 | -27.15415 | -52.51623 | 6619 ft | 293 kts | 279° |
| 2026-04-22 19:07 | -27.15092 | -52.53867 | 5885 ft | 290 kts | 279° |
| 2026-04-22 19:07 | -27.14775 | -52.56088 | 5138 ft | 287 kts | 279° |
| 2026-04-22 19:08 | -27.14462 | -52.58289 | 4400 ft | 284 kts | 278° |
| 2026-04-22 19:08 | -27.14156 | -52.60435 | 3933 ft | 273 kts | 277° |
| 2026-04-22 19:08 | -27.13859 | -52.62536 | 3275 ft | 270 kts | 276° |
| 2026-04-22 19:08 | -27.13558 | -52.64667 | 2846 ft | 301 kts | 278° |
| 2026-04-22 19:09 | -27.13209 | -52.67151 | 3300 ft | 328 kts | 278° |
| 2026-04-22 19:09 | -27.13110 | -52.69688 | 3811 ft | 314 kts | 259° |
| 2026-04-22 19:09 | -27.13572 | -52.71157 | 3931 ft | 294 kts | 239° |
| 2026-04-22 19:09 | -27.15546 | -52.72931 | 4001 ft | 265 kts | 195° |
| 2026-04-22 19:10 | -27.17309 | -52.72841 | 4001 ft | 251 kts | 159° |
| 2026-04-22 19:10 | -27.18571 | -52.71639 | 4004 ft | 237 kts | 119° |
| 2026-04-22 19:10 | -27.18994 | -52.69871 | 4008 ft | 235 kts | 98° |
| 2026-04-22 19:10 | -27.19216 | -52.68054 | 4008 ft | 234 kts | 98° |
| 2026-04-22 19:11 | -27.19435 | -52.66240 | 4011 ft | 235 kts | 98° |
| 2026-04-22 19:11 | -27.19654 | -52.64414 | 4008 ft | 237 kts | 98° |
| 2026-04-22 19:11 | -27.19874 | -52.62581 | 4010 ft | 237 kts | 98° |
| 2026-04-22 19:11 | -27.20149 | -52.60759 | 4010 ft | 236 kts | 105° |
| 2026-04-22 19:12 | -27.20664 | -52.59019 | 4008 ft | 236 kts | 113° |
| 2026-04-22 19:12 | -27.21280 | -52.57313 | 4004 ft | 235 kts | 113° |
| 2026-04-22 19:12 | -27.21914 | -52.55615 | 4004 ft | 237 kts | 115° |
| 2026-04-22 19:12 | -27.22541 | -52.53923 | 3991 ft | 229 kts | 113° |
| 2026-04-22 19:13 | -27.23154 | -52.52242 | 3997 ft | 234 kts | 112° |
| 2026-04-22 19:13 | -27.23758 | -52.50556 | 3985 ft | 233 kts | 113° |
| 2026-04-22 19:13 | -27.24362 | -52.48858 | 3953 ft | 235 kts | 114° |
| 2026-04-22 19:13 | -27.24972 | -52.47135 | 3953 ft | 238 kts | 114° |
| 2026-04-22 19:14 | -27.25575 | -52.45417 | 3952 ft | 236 kts | 113° |
| 2026-04-22 19:14 | -27.26131 | -52.43675 | 3954 ft | 236 kts | 104° |
| 2026-04-22 19:14 | -27.26463 | -52.41863 | 3956 ft | 238 kts | 100° |
| 2026-04-22 19:14 | -27.26707 | -52.40070 | 3952 ft | 227 kts | 99° |
| 2026-04-22 19:15 | -27.26860 | -52.38927 | 3943 ft | 219 kts | 103° |
| 2026-04-22 19:15 | -27.27790 | -52.36969 | 3955 ft | 212 kts | 139° |
| 2026-04-22 19:15 | -27.29027 | -52.36145 | 3956 ft | 206 kts | 166° |
| 2026-04-22 19:15 | -27.30427 | -52.36021 | 3955 ft | 201 kts | 192° |
| 2026-04-22 19:16 | -27.31719 | -52.36570 | 3951 ft | 199 kts | 217° |
| 2026-04-22 19:16 | -27.32672 | -52.37651 | 3952 ft | 197 kts | 239° |
| 2026-04-22 19:16 | -27.33153 | -52.39069 | 3956 ft | 196 kts | 262° |
| 2026-04-22 19:16 | -27.33078 | -52.40578 | 3952 ft | 196 kts | 285° |
| 2026-04-22 19:17 | -27.32448 | -52.41956 | 3959 ft | 200 kts | 310° |
| 2026-04-22 19:17 | -27.31318 | -52.42873 | 3944 ft | 204 kts | 339° |
| 2026-04-22 19:17 | -27.29922 | -52.43243 | 3972 ft | 206 kts | 346° |
| 2026-04-22 19:17 | -27.28573 | -52.43554 | 3970 ft | 189 kts | 345° |
| 2026-04-22 19:18 | -27.27347 | -52.43833 | 3941 ft | 171 kts | 346° |
| 2026-04-22 19:18 | -27.26206 | -52.44090 | 3942 ft | 165 kts | 346° |
| 2026-04-22 19:18 | -27.25093 | -52.44342 | 3947 ft | 160 kts | 344° |
| 2026-04-22 19:18 | -27.24013 | -52.44589 | 3953 ft | 158 kts | 342° |
| 2026-04-22 19:19 | -27.22933 | -52.44837 | 3962 ft | 159 kts | 347° |
| 2026-04-22 19:19 | -27.21854 | -52.45084 | 3957 ft | 158 kts | 346° |
| 2026-04-22 19:19 | -27.20774 | -52.45330 | 3957 ft | 159 kts | 346° |
| 2026-04-22 19:19 | -27.19697 | -52.45574 | 3945 ft | 157 kts | 345° |
| 2026-04-22 19:20 | -27.18621 | -52.45821 | 3967 ft | 160 kts | 344° |
| 2026-04-22 19:20 | -27.17888 | -52.45990 | 3911 ft | 160 kts | 346° |
| 2026-04-22 19:20 | -27.16427 | -52.46326 | 3679 ft | 162 kts | 345° |
| 2026-04-22 19:20 | -27.15682 | -52.46425 | 3542 ft | 165 kts | 0° |
| 2026-04-22 19:21 | -27.14559 | -52.46641 | 3404 ft | 164 kts | 330° |
| 2026-04-22 19:21 | -27.13803 | -52.47529 | 3330 ft | 156 kts | 290° |
| 2026-04-22 19:21 | -27.13682 | -52.48694 | 3155 ft | 146 kts | 264° |
| 2026-04-22 19:21 | -27.13836 | -52.49800 | 3129 ft | 142 kts | 258° |
| 2026-04-22 19:22 | -27.14043 | -52.50893 | 3193 ft | 142 kts | 256° |
| 2026-04-22 19:22 | -27.14245 | -52.51992 | 3249 ft | 143 kts | 258° |
| 2026-04-22 19:22 | -27.14428 | -52.53074 | 3275 ft | 139 kts | 258° |
| 2026-04-22 19:22 | -27.14578 | -52.54152 | 3317 ft | 138 kts | 265° |
| 2026-04-22 19:23 | -27.14584 | -52.55243 | 3350 ft | 140 kts | 269° |
| 2026-04-22 19:23 | -27.14586 | -52.56357 | 3442 ft | 144 kts | 267° |
| 2026-04-22 19:23 | -27.14573 | -52.57490 | 3415 ft | 146 kts | 273° |
| 2026-04-22 19:23 | -27.14459 | -52.58622 | 3404 ft | 145 kts | 274° |
| 2026-04-22 19:24 | -27.14283 | -52.59751 | 3273 ft | 146 kts | 278° |
| 2026-04-22 19:24 | -27.14080 | -52.60859 | 3064 ft | 144 kts | 278° |
| 2026-04-22 19:24 | -27.13929 | -52.61964 | 2811 ft | 141 kts | 277° |
| 2026-04-22 19:24 | -27.13799 | -52.63057 | 2544 ft | 139 kts | 278° |
| 2026-04-22 19:25 | -27.13638 | -52.64118 | 2300 ft | 139 kts | 279° |
| 2026-04-22 19:25 | -27.13484 | -52.65177 | 2136 ft | 133 kts | 278° |
| 2026-04-22 19:25 | -27.13370 | -52.65992 | 2129 ft | 65 kts | 279° |
| 2026-04-22 19:25 | -27.13314 | -52.66383 | 2129 ft | 46 kts | 279° |
| 2026-04-22 19:26 | -27.13272 | -52.66681 | 2126 ft | 34 kts | 277° |
| 2026-04-22 19:26 | -27.13231 | -52.66855 | 2128 ft | 12 kts | 318° |
| 2026-04-22 19:26 | -27.13233 | -52.66893 | 2128 ft | 5 kts | 181° |
| 2026-04-22 19:26 | -27.13245 | -52.66868 | 2128 ft | 3 kts | 96° |
| 2026-04-22 19:27 | -27.13248 | -52.66847 | 2125 ft | 2 kts | 97° |
| 2026-04-22 19:27 | -27.13249 | -52.66833 | 2125 ft | 3 kts | 97° |
| 2026-04-22 19:27 | -27.13256 | -52.66780 | 2126 ft | 10 kts | 98° |
| 2026-04-22 19:27 | -27.13271 | -52.66681 | 2126 ft | 16 kts | 99° |
| 2026-04-22 19:28 | -27.13291 | -52.66543 | 2128 ft | 20 kts | 98° |
| 2026-04-22 19:28 | -27.13315 | -52.66366 | 2129 ft | 26 kts | 100° |
| 2026-04-22 19:28 | -27.13341 | -52.66186 | 2128 ft | 14 kts | 98° |
| 2026-04-22 19:28 | -27.13343 | -52.66119 | 2129 ft | 6 kts | 53° |
| 2026-04-22 19:29 | -27.13308 | -52.66104 | 2128 ft | 8 kts | 9° |
| 2026-04-22 19:29 | -27.13248 | -52.66106 | 2127 ft | 0 kts | 333° |